Time;durP1;ratioP1;P1;durP2;ratioP2;P2;SDS_P1;SDS_P2;PMS_P1;PMS_P2;Temp;Humidity;BMP_temperature;BMP_pressure;BME280_temperature;BME280_humidity;BME280_pressure;Samples;Min_cycle;Max_cycle;Signal;HPM_P1;HPM_P2
2022/05/07 00:00:10;;;;;;;5.63;4.30;;;14.30;78.90;;;;;;21009490;28;20237;-62
2022/05/07 00:10:13;;;;;;;5.13;4.63;;;14.10;79.70;;;;;;21008845;28;20317;-63
2022/05/07 00:20:15;;;;;;;8.47;4.50;;;14.00;80.90;;;;;;21007684;28;20246;-62
2022/05/07 00:30:17;;;;;;;6.07;4.70;;;13.90;81.50;;;;;;21006934;28;20247;-62
2022/05/07 00:40:18;;;;;;;5.10;4.60;;;13.80;81.90;;;;;;21006793;28;20723;-63
2022/05/07 01:00:40;;;;;;;4.87;4.37;;;13.40;83.60;;;;;;21004480;28;20624;-61
2022/05/07 01:10:42;;;;;;;5.93;4.20;;;13.30;84.40;;;;;;21004435;28;20316;-62
2022/05/07 01:20:44;;;;;;;6.70;5.00;;;13.20;85.00;;;;;;21003061;28;20288;-63
2022/05/07 01:30:47;;;;;;;6.47;5.07;;;13.00;85.60;;;;;;21002503;28;20569;-63
2022/05/07 01:40:48;;;;;;;8.80;5.00;;;12.90;86.40;;;;;;21002079;28;20213;-62
2022/05/07 01:50:50;;;;;;;5.40;4.63;;;12.80;86.20;;;;;;21001424;28;20608;-62
2022/05/07 02:00:52;;;;;;;5.53;4.50;;;12.70;87.40;;;;;;20999902;28;20213;-63
2022/05/07 02:10:54;;;;;;;5.77;4.40;;;12.70;88.00;;;;;;21000093;28;20239;-62
2022/05/07 02:20:56;;;;;;;6.23;4.73;;;12.50;88.50;;;;;;21004167;28;20247;-63
2022/05/07 02:30:58;;;;;;;10.33;5.00;;;12.40;88.90;;;;;;21006471;28;20233;-63
2022/05/07 02:51:20;;;;;;;10.83;4.60;;;12.20;90.00;;;;;;20997204;28;20240;-67
2022/05/07 03:01:22;;;;;;;6.40;4.00;;;12.10;90.20;;;;;;20995688;28;20736;-67
2022/05/07 03:11:24;;;;;;;6.43;5.10;;;12.00;90.40;;;;;;20995943;28;20241;-72
2022/05/07 03:21:25;;;;;;;5.60;4.70;;;11.90;90.50;;;;;;20995902;28;20235;-66
2022/05/07 03:31:27;;;;;;;4.90;4.40;;;11.70;90.70;;;;;;21021921;28;20234;-63
2022/05/07 03:41:30;;;;;;;5.67;4.67;;;11.70;91.00;;;;;;21022089;28;20207;-65
2022/05/07 03:53:29;;;;;;;6.60;5.10;;;11.60;91.20;;;;;;21021513;28;20242;-61
2022/05/07 04:01:53;;;;;;;4.83;4.33;;;11.50;91.40;;;;;;21021171;28;20257;-72
2022/05/07 04:11:55;;;;;;;5.97;4.03;;;11.70;91.70;;;;;;21021337;28;20247;-62
2022/05/07 04:21:56;;;;;;;4.37;3.93;;;11.60;91.90;;;;;;21020295;28;20318;-72
2022/05/07 04:31:58;;;;;;;12.00;8.93;;;11.70;91.80;;;;;;21018569;28;20246;-64
2022/05/07 04:42:01;;;;;;;8.00;5.93;;;11.70;92.00;;;;;;21031404;28;20279;-63
2022/05/07 04:52:08;;;;;;;7.63;5.97;;;11.60;92.20;;;;;;21037760;28;20318;-65
2022/05/07 05:02:10;;;;;;;7.83;5.03;;;11.80;92.20;;;;;;21006883;28;20705;-64
2022/05/07 05:12:12;;;;;;;12.77;6.60;;;12.10;92.00;;;;;;21006553;28;20721;-67
2022/05/07 05:22:14;;;;;;;4.30;3.90;;;11.90;92.00;;;;;;21009363;28;20706;-74
2022/05/07 05:32:19;;;;;;;5.07;3.83;;;12.00;92.10;;;;;;21008734;28;20236;-68
2022/05/07 05:42:24;;;;;;;10.33;8.20;;;12.10;92.00;;;;;;21008592;28;20697;-68
2022/05/07 05:52:27;;;;;;;5.53;4.10;;;12.40;91.90;;;;;;21003794;28;20343;-70
2022/05/07 06:02:29;;;;;;;4.77;3.80;;;12.70;91.90;;;;;;21004507;28;20212;-69
2022/05/07 06:12:31;;;;;;;10.50;8.40;;;13.00;91.60;;;;;;21038221;28;20309;-64
2022/05/07 06:22:33;;;;;;;13.10;8.33;;;13.30;91.30;;;;;;21065134;28;20624;-71
2022/05/07 06:32:36;;;;;;;4.10;3.30;;;13.70;90.40;;;;;;21032726;28;20284;-65
2022/05/07 06:42:39;;;;;;;6.47;3.70;;;14.00;90.50;;;;;;20998173;28;20264;-66
2022/05/07 06:52:44;;;;;;;4.45;3.33;;;14.30;89.60;;;;;;21024516;28;20470;-65
2022/05/07 07:02:45;;;;;;;4.50;4.03;;;14.70;87.00;;;;;;21044905;28;20195;-72
2022/05/07 07:12:47;;;;;;;7.57;3.80;;;14.70;86.10;;;;;;21039607;28;20230;-67
2022/05/07 07:22:49;;;;;;;6.10;3.87;;;15.10;85.50;;;;;;21020252;28;20255;-67
2022/05/07 07:32:51;;;;;;;6.20;4.57;;;15.40;84.70;;;;;;21090427;28;20246;-66
2022/05/07 07:42:56;;;;;;;5.43;3.70;;;15.70;84.20;;;;;;21020319;28;20288;-68
2022/05/07 07:53:02;;;;;;;6.40;4.77;;;16.10;83.70;;;;;;21010481;28;20268;-63
2022/05/07 08:03:09;;;;;;;5.33;3.77;;;16.50;83.00;;;;;;21038349;28;20253;-71
2022/05/07 08:13:11;;;;;;;4.83;3.47;;;16.80;82.30;;;;;;21072907;28;20250;-72
2022/05/07 08:23:12;;;;;;;6.77;3.30;;;17.20;81.20;;;;;;21087073;28;20317;-64
2022/05/07 08:33:14;;;;;;;3.93;3.10;;;17.50;80.00;;;;;;21124849;28;20229;-65
2022/05/07 08:43:16;;;;;;;3.90;2.33;;;17.80;78.50;;;;;;21064763;28;20260;-65
2022/05/07 08:53:20;;;;;;;4.67;2.63;;;18.20;76.20;;;;;;21039660;28;20232;-61
2022/05/07 09:03:24;;;;;;;4.17;2.70;;;18.50;73.30;;;;;;21035599;28;20208;-65
2022/05/07 09:13:26;;;;;;;11.07;2.77;;;18.70;69.70;;;;;;21053530;28;20270;-64
2022/05/07 09:23:28;;;;;;;6.80;2.30;;;18.90;67.10;;;;;;21119431;28;20235;-68
2022/05/07 09:33:32;;;;;;;3.60;2.30;;;19.00;64.20;;;;;;21125354;28;20231;-63
2022/05/07 09:43:34;;;;;;;6.40;2.27;;;19.20;62.40;;;;;;21122401;28;20204;-64
2022/05/07 10:04:08;;;;;;;8.70;2.57;;;19.70;59.60;;;;;;21116996;28;20301;-72
2022/05/07 10:14:10;;;;;;;2.43;2.10;;;19.80;57.00;;;;;;21074556;28;20634;-72
2022/05/07 10:24:18;;;;;;;6.37;1.90;;;20.00;55.40;;;;;;21035098;28;20266;-66
2022/05/07 10:34:25;;;;;;;2.63;1.90;;;20.10;53.80;;;;;;21033753;28;20704;-67
2022/05/07 10:44:35;;;;;;;3.00;2.20;;;20.30;53.20;;;;;;21028709;28;20694;-65
2022/05/07 10:54:37;;;;;;;6.50;2.13;;;20.50;52.20;;;;;;21013850;28;20237;-68
2022/05/07 11:04:43;;;;;;;4.67;1.73;;;20.60;51.50;;;;;;21022022;28;20263;-66
2022/05/07 11:14:45;;;;;;;9.03;1.97;;;20.80;51.00;;;;;;21026308;28;20246;-70
2022/05/07 11:24:55;;;;;;;4.93;1.87;;;21.00;51.20;;;;;;21021960;28;20234;-70
2022/05/07 11:34:57;;;;;;;3.03;1.80;;;21.20;50.80;;;;;;21024605;28;20231;-68
2022/05/07 11:55:29;;;;;;;2.53;2.03;;;21.60;49.10;;;;;;21039010;28;20239;-69
2022/05/07 12:05:49;;;;;;;3.93;1.90;;;21.80;49.40;;;;;;21017120;28;20704;-67
2022/05/07 12:36:34;;;;;;;3.80;1.97;;;23.20;47.60;;;;;;21012337;28;20697;-71
2022/05/07 12:46:35;;;;;;;6.13;2.03;;;23.50;46.60;;;;;;21006760;28;20229;-71
2022/05/07 12:56:37;;;;;;;3.13;1.80;;;23.10;46.40;;;;;;21005628;28;20281;-69
2022/05/07 13:06:39;;;;;;;6.10;1.60;;;23.20;46.30;;;;;;21006485;28;20208;-72
2022/05/07 13:16:41;;;;;;;3.33;1.63;;;23.20;46.20;;;;;;21024140;28;20277;-71
2022/05/07 13:26:42;;;;;;;2.30;1.90;;;22.70;46.00;;;;;;21015996;28;20211;-70
2022/05/07 13:36:51;;;;;;;4.63;1.90;;;23.00;46.10;;;;;;21003758;28;20285;-70
2022/05/07 13:46:54;;;;;;;2.97;1.70;;;23.40;45.70;;;;;;21002059;28;20343;-64
2022/05/07 13:56:55;;;;;;;5.73;1.87;;;23.10;45.70;;;;;;21000632;28;20252;-71
2022/05/07 14:06:59;;;;;;;2.20;1.50;;;23.20;45.60;;;;;;20998616;28;20234;-64
2022/05/07 14:17:01;;;;;;;3.00;1.73;;;24.60;45.00;;;;;;20998537;28;20273;-62
2022/05/07 14:27:04;;;;;;;3.20;2.30;;;24.90;44.20;;;;;;20997734;28;20273;-66
2022/05/07 14:37:06;;;;;;;2.20;1.70;;;25.40;42.60;;;;;;20998811;28;20237;-64
2022/05/07 14:47:07;;;;;;;2.85;1.83;;;26.00;41.90;;;;;;20997534;28;20626;-68
2022/05/07 14:57:10;;;;;;;1.98;1.60;;;28.30;39.70;;;;;;20996470;28;20639;-66
2022/05/07 15:07:11;;;;;;;4.07;1.73;;;28.10;39.10;;;;;;21003672;28;20253;-66
2022/05/07 15:17:13;;;;;;;5.00;1.73;;;29.10;37.60;;;;;;20994868;28;20268;-64
2022/05/07 15:27:15;;;;;;;2.35;1.50;;;28.60;37.20;;;;;;20994834;28;20250;-65
2022/05/07 15:37:18;;;;;;;6.07;1.93;;;26.70;38.00;;;;;;20994436;28;20231;-67
2022/05/07 15:47:20;;;;;;;5.53;1.80;;;26.20;38.80;;;;;;20994679;28;20203;-65
2022/05/07 15:57:22;;;;;;;2.67;1.77;;;25.90;38.90;;;;;;20994018;28;20261;-69
2022/05/07 16:07:24;;;;;;;2.23;1.87;;;25.30;39.60;;;;;;20993911;28;20618;-66
2022/05/07 16:17:26;;;;;;;1.80;1.53;;;25.00;40.30;;;;;;20992779;28;20265;-63
2022/05/07 16:27:28;;;;;;;2.90;1.80;;;26.50;39.00;;;;;;20992803;28;20717;-63
2022/05/07 16:37:31;;;;;;;5.00;2.10;;;27.60;37.80;;;;;;21005093;28;20253;-63
2022/05/07 16:47:32;;;;;;;3.53;1.90;;;26.70;38.30;;;;;;21005043;28;20412;-63
2022/05/07 16:57:34;;;;;;;2.17;1.73;;;25.70;39.20;;;;;;21015973;28;20235;-63
2022/05/07 17:07:36;;;;;;;4.73;1.93;;;24.90;39.90;;;;;;21007799;28;20655;-64
2022/05/07 17:17:37;;;;;;;3.23;1.93;;;24.80;39.90;;;;;;21004676;28;20237;-63
2022/05/07 17:27:39;;;;;;;2.00;1.80;;;24.10;40.60;;;;;;21003668;28;20212;-62
2022/05/07 17:37:41;;;;;;;4.53;2.13;;;23.40;41.20;;;;;;21003123;28;20231;-62
2022/05/07 17:47:42;;;;;;;2.43;1.90;;;22.90;41.80;;;;;;21001436;28;20697;-62
2022/05/07 17:57:45;;;;;;;4.20;2.43;;;22.60;42.50;;;;;;21000832;28;20235;-63
2022/05/07 18:07:46;;;;;;;2.87;2.00;;;22.20;42.90;;;;;;21000468;28;20211;-62
2022/05/07 18:17:48;;;;;;;4.20;2.77;;;21.90;43.50;;;;;;21003254;28;20235;-68
2022/05/07 18:27:50;;;;;;;5.47;3.30;;;21.60;44.00;;;;;;21021934;28;20211;-62
2022/05/07 18:48:12;;;;;;;6.23;3.43;;;21.00;45.90;;;;;;20997131;28;20666;-63
2022/05/07 18:58:29;;;;;;;4.20;2.87;;;20.70;47.20;;;;;;20996075;28;20238;-64
2022/05/07 19:08:32;;;;;;;6.50;4.20;;;20.40;48.30;;;;;;20996528;28;20210;-63
2022/05/07 19:18:33;;;;;;;5.20;4.23;;;20.00;49.70;;;;;;20995085;28;20749;-65
2022/05/07 19:28:41;;;;;;;7.63;4.40;;;19.60;52.00;;;;;;20994940;28;20349;-62
2022/05/07 19:38:43;;;;;;;6.60;4.70;;;19.20;54.10;;;;;;20994646;28;20207;-62
2022/05/07 19:48:45;;;;;;;5.23;4.20;;;18.70;55.80;;;;;;20993885;28;20256;-62
2022/05/07 19:58:47;;;;;;;8.37;4.90;;;18.40;57.10;;;;;;20993614;28;20272;-61
2022/05/07 20:08:49;;;;;;;8.17;5.50;;;18.10;58.40;;;;;;21001153;28;20683;-65
2022/05/07 20:18:51;;;;;;;6.73;4.50;;;17.70;59.70;;;;;;21008250;28;20242;-66
2022/05/07 20:28:52;;;;;;;11.07;5.30;;;17.50;61.40;;;;;;21007949;28;20211;-65
2022/05/07 20:38:55;;;;;;;6.37;4.90;;;17.20;62.80;;;;;;21006643;28;20317;-68
2022/05/07 20:48:58;;;;;;;9.37;5.07;;;17.10;63.10;;;;;;21005980;28;20725;-69
2022/05/07 20:59:01;;;;;;;8.70;5.47;;;17.10;64.30;;;;;;21001218;28;20208;-66
2022/05/07 21:09:11;;;;;;;8.97;5.40;;;16.90;65.30;;;;;;21004529;28;20233;-63
2022/05/07 21:19:12;;;;;;;11.30;5.30;;;16.70;66.40;;;;;;21003209;28;20232;-63
2022/05/07 21:29:14;;;;;;;8.43;5.17;;;16.60;67.70;;;;;;21003828;28;20747;-63
2022/05/07 21:39:16;;;;;;;8.47;5.90;;;16.40;68.80;;;;;;21004015;28;20209;-62
2022/05/07 21:49:18;;;;;;;10.23;6.50;;;16.40;69.40;;;;;;21002458;28;20235;-63
2022/05/07 21:59:20;;;;;;;11.37;6.03;;;16.40;70.20;;;;;;21001759;28;20207;-63
2022/05/07 22:09:24;;;;;;;6.03;4.50;;;16.20;71.90;;;;;;21001464;28;20269;-64
2022/05/07 22:19:26;;;;;;;5.50;4.40;;;16.00;73.00;;;;;;21001459;28;20306;-71
2022/05/07 22:29:28;;;;;;;5.93;4.13;;;15.90;73.50;;;;;;20999372;28;20235;-62
2022/05/07 22:39:29;;;;;;;9.93;4.90;;;15.70;74.40;;;;;;21004599;28;20203;-69
2022/05/07 22:49:31;;;;;;;10.90;5.27;;;15.60;75.20;;;;;;21014378;28;20240;-64
2022/05/07 22:59:34;;;;;;;8.07;5.53;;;15.50;76.10;;;;;;21015000;28;20213;-64
2022/05/07 23:09:35;;;;;;;7.83;5.40;;;15.30;76.80;;;;;;21020157;28;20295;-67
2022/05/07 23:19:37;;;;;;;4.87;4.30;;;15.20;77.90;;;;;;21018487;28;20237;-63
2022/05/07 23:29:39;;;;;;;6.73;4.20;;;15.10;78.80;;;;;;21016940;28;20269;-67
2022/05/07 23:39:40;;;;;;;10.73;5.07;;;15.00;79.40;;;;;;21024672;28;20609;-71
2022/05/07 23:49:42;;;;;;;6.60;4.60;;;14.80;80.20;;;;;;21037980;28;20230;-68
2022/05/07 23:59:43;;;;;;;7.40;4.70;;;14.50;81.00;;;;;;21032975;28;20203;-68
